Time;durP1;ratioP1;P1;durP2;ratioP2;P2;SDS_P1;SDS_P2;PMS_P1;PMS_P2;Temp;Humidity;BMP_temperature;BMP_pressure;BME280_temperature;BME280_humidity;BME280_pressure;Samples;Min_cycle;Max_cycle;Signal;HPM_P1;HPM_P2
2023/07/24 00:01:09;;;;;;;9.88;7.22;;;16.90;99.90;;;;;;5111761;28;20402;-66
2023/07/24 00:03:34;;;;;;;9.63;8.60;;;16.90;99.90;;;;;;5111663;27;20402;-66
2023/07/24 00:06:01;;;;;;;11.18;8.70;;;16.90;99.90;;;;;;5113336;27;20430;-66
2023/07/24 00:08:26;;;;;;;12.27;10.77;;;16.90;99.90;;;;;;5113113;27;20035;-66
2023/07/24 00:10:52;;;;;;;11.95;9.88;;;16.90;99.90;;;;;;5130836;27;20375;-66
2023/07/24 00:13:18;;;;;;;11.73;10.48;;;17.00;99.90;;;;;;5132084;27;20099;-66
2023/07/24 00:15:43;;;;;;;11.52;10.23;;;16.90;99.90;;;;;;5132053;27;20038;-66
2023/07/24 00:18:09;;;;;;;13.13;11.90;;;16.90;99.90;;;;;;5117558;27;20069;-66
2023/07/24 00:20:35;;;;;;;13.30;12.00;;;16.90;99.90;;;;;;5111469;28;20044;-66
2023/07/24 00:23:00;;;;;;;11.90;10.70;;;17.00;99.90;;;;;;5120349;27;20070;-66
2023/07/24 00:25:26;;;;;;;12.65;11.38;;;16.90;99.90;;;;;;5131630;27;20046;-66
2023/07/24 00:27:52;;;;;;;12.18;11.05;;;16.90;99.90;;;;;;5127107;27;20409;-66
2023/07/24 00:30:17;;;;;;;12.40;11.20;;;16.90;99.90;;;;;;5112581;28;20374;-66
2023/07/24 00:32:43;;;;;;;12.48;10.88;;;16.90;99.90;;;;;;5111196;28;20105;-66
2023/07/24 00:35:09;;;;;;;13.00;11.73;;;16.90;99.90;;;;;;5111325;28;20111;-66
2023/07/24 00:37:34;;;;;;;12.98;11.23;;;16.90;99.90;;;;;;5111669;27;20040;-67
2023/07/24 00:40:00;;;;;;;12.18;10.90;;;16.90;99.90;;;;;;5111355;28;20255;-66
2023/07/24 00:42:26;;;;;;;13.40;12.05;;;16.90;99.90;;;;;;5110521;27;20043;-66
2023/07/24 00:44:51;;;;;;;12.75;11.05;;;16.80;99.90;;;;;;5121686;27;20035;-66
2023/07/24 00:47:17;;;;;;;12.13;10.93;;;16.80;99.90;;;;;;5111141;28;20138;-66
2023/07/24 00:49:44;;;;;;;11.93;10.73;;;16.80;99.90;;;;;;5116829;27;20043;-66
2023/07/24 00:52:10;;;;;;;11.88;10.77;;;16.80;99.90;;;;;;5110445;28;20060;-66
2023/07/24 00:54:37;;;;;;;12.02;10.82;;;16.80;99.90;;;;;;5110737;28;20031;-66
2023/07/24 00:57:04;;;;;;;11.95;10.70;;;16.80;99.90;;;;;;5110973;28;20036;-66
2023/07/24 00:59:30;;;;;;;12.00;10.90;;;16.70;99.90;;;;;;5112366;27;20035;-66
2023/07/24 01:01:56;;;;;;;12.27;10.98;;;16.70;99.90;;;;;;5112748;27;20051;-66
2023/07/24 01:04:22;;;;;;;11.05;10.00;;;16.70;99.90;;;;;;5109907;28;20064;-67
2023/07/24 01:06:48;;;;;;;11.55;10.45;;;16.70;99.90;;;;;;5110068;28;20421;-66
2023/07/24 01:09:13;;;;;;;10.43;9.43;;;16.70;99.90;;;;;;5110764;28;20036;-66
2023/07/24 01:11:47;;;;;;;13.60;10.43;;;16.70;99.90;;;;;;5113245;27;20438;-66
2023/07/24 01:14:29;;;;;;;10.40;9.43;;;16.70;99.90;;;;;;5123666;27;20034;-66
2023/07/24 01:16:57;;;;;;;10.63;9.52;;;16.70;99.90;;;;;;5120967;27;20440;-66
2023/07/24 01:19:55;;;;;;;10.52;9.45;;;16.70;99.90;;;;;;5111678;28;20028;-66
2023/07/24 01:22:26;;;;;;;11.00;9.90;;;16.70;99.90;;;;;;5051205;28;20132;-66
2023/07/24 01:25:15;;;;;;;10.93;9.20;;;16.70;99.90;;;;;;5035324;28;20044;-66
2023/07/24 01:27:45;;;;;;;10.20;9.23;;;16.70;99.90;;;;;;5044663;28;20366;-66
2023/07/24 01:30:13;;;;;;;10.10;9.07;;;16.70;99.90;;;;;;5051846;28;20072;-66
2023/07/24 01:32:39;;;;;;;10.43;8.32;;;16.60;99.90;;;;;;5051187;28;20470;-66
2023/07/24 01:35:06;;;;;;;10.00;8.20;;;16.60;99.90;;;;;;5036774;28;20041;-66
2023/07/24 01:37:33;;;;;;;9.18;8.27;;;16.60;99.90;;;;;;5047220;28;20479;-66
2023/07/24 01:39:59;;;;;;;8.45;7.65;;;16.60;99.90;;;;;;5051861;28;20055;-66
2023/07/24 01:42:26;;;;;;;9.20;7.13;;;16.60;99.90;;;;;;5051397;28;20036;-66
2023/07/24 01:44:53;;;;;;;8.68;7.78;;;16.60;99.90;;;;;;5051294;28;20088;-67
2023/07/24 01:47:19;;;;;;;8.32;7.53;;;16.60;99.90;;;;;;5051596;28;20045;-66
2023/07/24 01:49:44;;;;;;;7.72;7.00;;;16.60;99.90;;;;;;5051704;28;20050;-66
2023/07/24 01:52:10;;;;;;;8.43;7.63;;;16.60;99.90;;;;;;5051034;28;20056;-66
2023/07/24 01:54:35;;;;;;;8.00;7.20;;;16.60;99.90;;;;;;5050348;28;20040;-66
2023/07/24 01:57:01;;;;;;;8.93;7.38;;;16.50;99.90;;;;;;5051793;28;20060;-66
2023/07/24 01:59:26;;;;;;;9.23;7.53;;;16.50;99.90;;;;;;5113903;27;20043;-66
2023/07/24 02:01:52;;;;;;;7.70;7.00;;;16.50;99.90;;;;;;5130033;27;20070;-66
2023/07/24 02:04:21;;;;;;;7.00;6.28;;;16.50;99.90;;;;;;5118898;27;20055;-66
2023/07/24 02:06:48;;;;;;;7.90;7.10;;;16.50;99.90;;;;;;5131150;27;20458;-66
2023/07/24 02:09:14;;;;;;;8.00;6.45;;;16.50;99.90;;;;;;5133478;27;20030;-66
2023/07/24 02:11:40;;;;;;;7.28;6.57;;;16.50;99.90;;;;;;5116544;27;20617;-66
2023/07/24 02:14:05;;;;;;;8.30;7.50;;;16.50;99.90;;;;;;5114728;27;20041;-66
2023/07/24 02:16:31;;;;;;;8.57;7.38;;;16.40;99.90;;;;;;5113596;27;20084;-66
2023/07/24 02:18:56;;;;;;;8.27;7.53;;;16.50;99.90;;;;;;5112810;27;20043;-66
2023/07/24 02:21:22;;;;;;;8.38;7.57;;;16.50;99.90;;;;;;5106796;27;20081;-66
2023/07/24 02:23:48;;;;;;;7.80;7.10;;;16.50;99.90;;;;;;5133602;27;20049;-66
2023/07/24 02:26:13;;;;;;;7.90;7.10;;;16.50;99.90;;;;;;5100630;27;20142;-66
2023/07/24 02:28:39;;;;;;;10.13;8.02;;;16.60;99.90;;;;;;5115156;28;20081;-66
2023/07/24 02:31:05;;;;;;;7.85;6.70;;;16.60;99.90;;;;;;5123198;27;20038;-66
2023/07/24 02:33:30;;;;;;;7.10;6.40;;;16.60;99.90;;;;;;5135408;27;20065;-66
2023/07/24 02:35:56;;;;;;;7.43;6.57;;;16.60;99.90;;;;;;5127999;27;20034;-66
2023/07/24 02:38:21;;;;;;;7.80;7.00;;;16.60;99.90;;;;;;5118072;27;20039;-66
2023/07/24 02:40:47;;;;;;;8.77;7.88;;;16.60;99.90;;;;;;5117075;27;20043;-66
2023/07/24 02:43:13;;;;;;;7.40;6.65;;;16.60;99.90;;;;;;5100208;27;20130;-66
2023/07/24 02:45:38;;;;;;;8.10;7.30;;;16.70;99.90;;;;;;5135691;27;20047;-66
2023/07/24 02:48:05;;;;;;;7.88;7.07;;;16.60;99.90;;;;;;5119977;27;20050;-66
2023/07/24 02:50:32;;;;;;;7.57;6.88;;;16.60;99.90;;;;;;5133995;27;20054;-66
2023/07/24 02:52:58;;;;;;;8.63;6.90;;;16.60;99.90;;;;;;5116724;27;20405;-66
2023/07/24 02:55:24;;;;;;;8.35;6.93;;;16.70;99.90;;;;;;5118698;27;20035;-66
2023/07/24 02:57:50;;;;;;;7.57;6.78;;;16.70;99.90;;;;;;5136068;27;20046;-66
2023/07/24 03:00:16;;;;;;;9.73;6.97;;;16.60;99.90;;;;;;5137012;27;20054;-66
2023/07/24 03:02:41;;;;;;;7.45;6.75;;;16.70;99.90;;;;;;5119724;27;20047;-66
2023/07/24 03:05:07;;;;;;;7.18;6.40;;;16.60;99.90;;;;;;5124822;27;20055;-66
2023/07/24 03:07:33;;;;;;;7.38;6.68;;;16.60;99.90;;;;;;5118889;27;20047;-66
2023/07/24 03:09:58;;;;;;;7.20;6.50;;;16.60;99.90;;;;;;5122907;27;20038;-66
2023/07/24 03:12:25;;;;;;;7.15;6.45;;;16.60;99.90;;;;;;5136887;27;20043;-66
2023/07/24 03:14:50;;;;;;;7.22;6.45;;;16.60;99.90;;;;;;5136865;27;20047;-66
2023/07/24 03:17:16;;;;;;;7.75;6.82;;;16.50;99.90;;;;;;5136706;27;20035;-66
2023/07/24 03:19:42;;;;;;;7.78;7.00;;;16.50;99.90;;;;;;5136118;27;20049;-66
2023/07/24 03:22:07;;;;;;;7.55;6.85;;;16.50;99.90;;;;;;5131418;27;20031;-66
2023/07/24 03:24:34;;;;;;;8.07;7.13;;;16.50;99.90;;;;;;5116085;27;20118;-66
2023/07/24 03:27:00;;;;;;;7.45;6.60;;;16.50;99.90;;;;;;5116319;27;20433;-66
2023/07/24 03:29:29;;;;;;;7.88;7.07;;;16.40;99.90;;;;;;5128085;27;20034;-66
2023/07/24 03:31:54;;;;;;;7.72;7.00;;;16.50;99.90;;;;;;5136286;27;20070;-66
2023/07/24 03:34:20;;;;;;;7.68;6.97;;;16.40;99.90;;;;;;5136514;27;20462;-66
2023/07/24 03:36:45;;;;;;;7.82;7.00;;;16.50;99.90;;;;;;5135478;27;20073;-66
2023/07/24 03:39:11;;;;;;;7.90;7.10;;;16.50;99.90;;;;;;5114381;27;20050;-66
2023/07/24 03:41:38;;;;;;;6.97;6.30;;;16.50;99.90;;;;;;5115777;27;20122;-66
2023/07/24 03:44:04;;;;;;;7.80;7.00;;;16.50;99.90;;;;;;5098701;27;20043;-66
2023/07/24 03:46:32;;;;;;;8.23;7.22;;;16.50;99.90;;;;;;5115575;27;20449;-66
2023/07/24 03:48:58;;;;;;;7.53;6.82;;;16.50;99.90;;;;;;5115655;27;20179;-66
2023/07/24 03:51:24;;;;;;;7.95;7.03;;;16.50;99.90;;;;;;5116915;27;20134;-66
2023/07/24 03:53:49;;;;;;;8.02;7.22;;;16.50;99.90;;;;;;5117416;27;20050;-66
2023/07/24 03:56:15;;;;;;;8.43;7.07;;;16.50;99.90;;;;;;5098308;27;20401;-66
2023/07/24 03:58:41;;;;;;;7.60;6.90;;;16.50;99.90;;;;;;5115269;27;20375;-66
2023/07/24 04:01:07;;;;;;;8.93;7.25;;;16.60;99.90;;;;;;5122799;27;20074;-66
2023/07/24 04:03:33;;;;;;;7.43;6.72;;;16.50;99.90;;;;;;5135956;27;20038;-66
2023/07/24 04:05:59;;;;;;;7.45;6.60;;;16.60;99.90;;;;;;5133497;27;20053;-66
2023/07/24 04:08:25;;;;;;;7.55;6.78;;;16.60;99.90;;;;;;5115529;27;20487;-66
2023/07/24 04:10:50;;;;;;;7.40;6.68;;;16.60;99.90;;;;;;5135157;27;20071;-66
2023/07/24 04:13:16;;;;;;;7.53;6.72;;;16.60;99.90;;;;;;5114917;27;20435;-66
2023/07/24 04:15:41;;;;;;;7.68;6.93;;;16.60;99.90;;;;;;5114986;27;20039;-66
2023/07/24 04:18:07;;;;;;;7.72;6.88;;;16.60;99.90;;;;;;5114916;27;20031;-67
2023/07/24 04:20:33;;;;;;;8.25;7.40;;;16.60;99.90;;;;;;5120975;27;20086;-66
2023/07/24 04:22:58;;;;;;;10.90;8.10;;;16.60;99.90;;;;;;5135184;27;20612;-66
2023/07/24 04:25:24;;;;;;;8.65;7.85;;;16.60;99.90;;;;;;5135363;27;20103;-67
2023/07/24 04:27:49;;;;;;;8.80;8.00;;;16.60;99.90;;;;;;5125622;27;20038;-66
2023/07/24 04:30:16;;;;;;;11.13;8.35;;;16.60;99.90;;;;;;5135312;27;20034;-66
2023/07/24 04:32:42;;;;;;;8.85;8.05;;;16.60;99.90;;;;;;5130310;27;20047;-66
2023/07/24 04:35:08;;;;;;;11.25;7.93;;;16.60;99.90;;;;;;5117743;27;20038;-66
2023/07/24 04:37:33;;;;;;;7.90;7.18;;;16.60;99.90;;;;;;5114983;27;20043;-66
2023/07/24 04:39:59;;;;;;;8.73;7.93;;;16.50;99.90;;;;;;5114742;27;20389;-66
2023/07/24 04:42:24;;;;;;;8.88;7.80;;;16.50;99.90;;;;;;5115096;27;20031;-66
2023/07/24 04:44:51;;;;;;;10.45;7.90;;;16.50;99.90;;;;;;5125995;27;20237;-66
2023/07/24 04:47:17;;;;;;;9.32;8.43;;;16.50;99.90;;;;;;5114448;27;20426;-66
2023/07/24 04:49:43;;;;;;;9.23;7.88;;;16.50;99.90;;;;;;5114651;27;20039;-66
2023/07/24 04:52:08;;;;;;;9.15;8.05;;;16.50;99.90;;;;;;5124902;27;20039;-66
2023/07/24 04:54:34;;;;;;;10.02;8.13;;;16.50;99.90;;;;;;5114625;27;20035;-66
2023/07/24 04:56:59;;;;;;;8.95;7.95;;;16.50;99.90;;;;;;5129677;27;20404;-66
2023/07/24 04:59:25;;;;;;;9.02;8.13;;;16.50;99.90;;;;;;5129179;27;20458;-66
2023/07/24 05:01:51;;;;;;;9.65;8.65;;;16.50;99.90;;;;;;5134397;27;20484;-66
2023/07/24 05:04:17;;;;;;;9.85;8.40;;;16.50;99.90;;;;;;5127456;27;20047;-66
2023/07/24 05:06:42;;;;;;;8.90;7.88;;;16.50;99.90;;;;;;5115876;27;20112;-66
2023/07/24 05:09:08;;;;;;;9.05;8.25;;;16.50;99.90;;;;;;5113876;27;20042;-66
2023/07/24 05:11:33;;;;;;;9.77;8.63;;;16.50;99.90;;;;;;5097186;27;20069;-66
2023/07/24 05:13:59;;;;;;;10.48;8.52;;;16.50;99.90;;;;;;5113822;27;20114;-66
2023/07/24 05:16:25;;;;;;;10.10;8.95;;;16.50;99.90;;;;;;5117232;27;20110;-66
2023/07/24 05:18:50;;;;;;;10.30;8.88;;;16.50;99.90;;;;;;5110900;27;20054;-66
2023/07/24 05:21:16;;;;;;;9.60;8.70;;;16.60;99.90;;;;;;5119194;27;20497;-66
2023/07/24 05:23:42;;;;;;;9.63;8.70;;;16.60;99.90;;;;;;5127917;27;20034;-66
2023/07/24 05:26:07;;;;;;;10.32;9.23;;;16.70;99.90;;;;;;5115679;27;20629;-66
2023/07/24 05:28:33;;;;;;;11.40;9.18;;;16.60;99.90;;;;;;5133979;27;20512;-66
2023/07/24 05:31:03;;;;;;;10.32;9.25;;;16.70;99.90;;;;;;5152583;27;20030;-66
2023/07/24 05:33:30;;;;;;;11.20;10.00;;;16.70;99.90;;;;;;5134112;27;20121;-66
2023/07/24 05:36:00;;;;;;;10.55;9.55;;;16.80;99.90;;;;;;5131906;27;20512;-66
2023/07/24 05:38:26;;;;;;;10.70;9.63;;;16.80;99.90;;;;;;5117010;27;20039;-66
2023/07/24 05:41:00;;;;;;;11.52;9.48;;;16.80;99.90;;;;;;5115215;27;20039;-66
2023/07/24 05:43:26;;;;;;;10.52;9.52;;;16.90;99.90;;;;;;5113356;27;20035;-66
2023/07/24 05:45:52;;;;;;;10.32;9.23;;;16.90;99.90;;;;;;5113532;27;20049;-66
2023/07/24 05:48:18;;;;;;;10.10;9.00;;;16.90;99.90;;;;;;5113530;27;20047;-66
2023/07/24 05:50:44;;;;;;;12.38;9.75;;;16.90;99.90;;;;;;5120757;27;20052;-66
2023/07/24 05:53:10;;;;;;;10.23;9.20;;;17.00;99.90;;;;;;5116574;27;20031;-66
2023/07/24 05:55:35;;;;;;;9.30;8.35;;;17.00;99.90;;;;;;5115539;27;20130;-66
2023/07/24 05:58:01;;;;;;;10.05;8.90;;;17.00;99.90;;;;;;5118623;27;20410;-66
2023/07/24 06:00:27;;;;;;;10.07;9.07;;;17.10;99.90;;;;;;5121328;27;20142;-66
2023/07/24 06:02:53;;;;;;;9.98;8.98;;;17.10;99.90;;;;;;5118241;27;20050;-66
2023/07/24 06:05:19;;;;;;;9.52;8.60;;;17.20;99.90;;;;;;5112529;27;20051;-66
2023/07/24 06:07:46;;;;;;;9.82;8.73;;;17.30;99.90;;;;;;5112015;27;20129;-66
2023/07/24 06:10:12;;;;;;;11.35;8.70;;;17.50;99.90;;;;;;5117312;27;20082;-66
2023/07/24 06:12:38;;;;;;;11.52;9.55;;;17.50;99.90;;;;;;5115369;27;20093;-66
2023/07/24 06:15:04;;;;;;;9.85;8.43;;;17.60;99.90;;;;;;5115050;27;20035;-66
2023/07/24 06:17:30;;;;;;;9.15;7.18;;;17.70;99.90;;;;;;5125580;27;20125;-66
2023/07/24 06:19:56;;;;;;;10.02;8.02;;;17.80;99.90;;;;;;5114932;27;20392;-66
2023/07/24 06:22:22;;;;;;;9.20;8.27;;;17.90;99.90;;;;;;5121101;27;20075;-66
2023/07/24 06:24:48;;;;;;;8.43;7.50;;;17.90;99.90;;;;;;5116487;27;20078;-66
2023/07/24 06:27:14;;;;;;;9.82;7.97;;;18.00;99.90;;;;;;5114644;27;20035;-66
2023/07/24 06:29:40;;;;;;;8.65;7.47;;;18.00;99.90;;;;;;5116008;27;20112;-66
2023/07/24 06:32:06;;;;;;;9.20;7.70;;;18.10;99.90;;;;;;5121090;27;20038;-65
2023/07/24 06:34:31;;;;;;;10.45;7.50;;;18.20;99.90;;;;;;5123726;27;20421;-66
2023/07/24 06:36:57;;;;;;;8.57;7.68;;;18.20;99.90;;;;;;5126875;27;20098;-65
2023/07/24 06:39:23;;;;;;;8.38;6.97;;;18.20;99.90;;;;;;5113751;27;20066;-66
2023/07/24 06:41:48;;;;;;;8.23;7.18;;;18.20;99.90;;;;;;5123584;27;20156;-66
2023/07/24 06:44:14;;;;;;;9.88;7.53;;;18.20;99.90;;;;;;5132110;27;20039;-66
2023/07/24 06:46:40;;;;;;;11.05;7.65;;;18.10;99.90;;;;;;5119507;27;20035;-66
2023/07/24 06:49:06;;;;;;;7.60;6.82;;;18.10;99.90;;;;;;5112871;27;20088;-66
2023/07/24 06:51:31;;;;;;;8.85;7.53;;;18.10;99.90;;;;;;5101970;27;20050;-66
2023/07/24 06:53:57;;;;;;;12.23;8.38;;;18.10;99.90;;;;;;5132549;27;20042;-65
2023/07/24 06:56:22;;;;;;;9.15;6.68;;;18.10;99.90;;;;;;5132942;27;20035;-66
2023/07/24 06:58:48;;;;;;;10.02;7.15;;;18.10;99.90;;;;;;5132719;27;20042;-67
2023/07/24 07:01:14;;;;;;;10.43;7.05;;;18.10;99.90;;;;;;5132574;27;20023;-66
2023/07/24 07:03:39;;;;;;;11.40;7.72;;;18.10;99.90;;;;;;5133024;27;20027;-66
2023/07/24 07:06:06;;;;;;;10.55;7.05;;;18.00;99.90;;;;;;5132605;27;20051;-66
2023/07/24 07:08:32;;;;;;;11.68;7.72;;;18.10;99.90;;;;;;5120477;27;20088;-66
2023/07/24 07:10:59;;;;;;;13.00;7.57;;;18.20;99.90;;;;;;5132728;27;20031;-66
2023/07/24 07:13:25;;;;;;;11.30;7.38;;;18.40;99.90;;;;;;5132585;27;20126;-66
2023/07/24 07:15:50;;;;;;;9.45;7.70;;;18.40;99.90;;;;;;5132563;27;20126;-66
2023/07/24 07:18:16;;;;;;;11.27;7.25;;;18.50;99.90;;;;;;5132717;27;20126;-66
2023/07/24 07:20:49;;;;;;;8.65;7.10;;;18.50;99.90;;;;;;5123141;27;20473;-66
2023/07/24 07:23:15;;;;;;;9.73;7.82;;;18.50;99.90;;;;;;5115921;27;20084;-66
2023/07/24 07:25:43;;;;;;;9.77;6.80;;;18.50;99.90;;;;;;5115987;27;20493;-66
2023/07/24 07:28:09;;;;;;;10.02;6.32;;;18.50;99.90;;;;;;5115831;27;20035;-66
2023/07/24 07:30:35;;;;;;;8.95;7.15;;;18.50;99.90;;;;;;5118279;27;20039;-66
2023/07/24 07:33:00;;;;;;;8.55;6.22;;;18.60;99.90;;;;;;5098480;27;20043;-66
2023/07/24 07:35:26;;;;;;;10.15;6.85;;;18.70;99.90;;;;;;5127631;27;20039;-65
2023/07/24 07:37:52;;;;;;;12.32;6.63;;;18.70;99.90;;;;;;5136214;27;20042;-65
2023/07/24 07:40:18;;;;;;;12.38;7.10;;;18.70;99.90;;;;;;5135595;27;20035;-65
2023/07/24 07:42:44;;;;;;;10.40;6.95;;;18.80;99.90;;;;;;5116241;27;20426;-66
2023/07/24 07:45:11;;;;;;;9.85;6.90;;;18.80;99.90;;;;;;5115555;27;20075;-66
2023/07/24 07:47:36;;;;;;;9.68;6.50;;;18.80;99.90;;;;;;5098909;27;20043;-66
2023/07/24 07:50:03;;;;;;;9.30;6.38;;;18.80;99.90;;;;;;5115759;27;20409;-66
2023/07/24 07:52:28;;;;;;;9.40;6.60;;;18.80;99.90;;;;;;5116876;27;20055;-66
2023/07/24 07:54:54;;;;;;;11.38;7.47;;;18.80;99.90;;;;;;5115776;27;20043;-66
2023/07/24 07:57:20;;;;;;;11.50;6.78;;;18.70;99.90;;;;;;5115338;27;20126;-66
2023/07/24 07:59:46;;;;;;;12.10;7.82;;;18.70;99.90;;;;;;5115479;27;20039;-65
2023/07/24 08:02:11;;;;;;;9.88;7.47;;;18.60;99.90;;;;;;5121278;27;20054;-66
2023/07/24 08:04:37;;;;;;;10.60;7.18;;;18.70;99.90;;;;;;5103407;27;20046;-66
2023/07/24 08:07:03;;;;;;;14.80;7.57;;;18.70;99.90;;;;;;5115202;27;20082;-66
2023/07/24 08:09:29;;;;;;;12.48;7.60;;;18.70;99.90;;;;;;5134333;27;20046;-66
2023/07/24 08:11:54;;;;;;;12.82;7.15;;;18.70;99.90;;;;;;5135658;27;20066;-66
2023/07/24 08:14:20;;;;;;;11.05;7.13;;;18.70;99.90;;;;;;5117812;27;20469;-66
2023/07/24 08:16:49;;;;;;;12.35;7.43;;;18.80;99.90;;;;;;5115277;27;20038;-66
2023/07/24 08:19:14;;;;;;;10.30;6.97;;;18.80;99.90;;;;;;5115178;27;20035;-66
2023/07/24 08:21:40;;;;;;;11.30;6.57;;;18.80;99.90;;;;;;5115209;27;20099;-66
2023/07/24 08:24:06;;;;;;;10.68;6.40;;;18.90;99.90;;;;;;5117809;27;20046;-66
2023/07/24 08:26:32;;;;;;;13.55;7.30;;;18.90;99.90;;;;;;5133558;27;20067;-66
2023/07/24 08:28:58;;;;;;;11.95;6.75;;;19.00;99.90;;;;;;5115088;27;20111;-66
2023/07/24 08:31:23;;;;;;;15.77;7.32;;;18.90;99.90;;;;;;5113042;27;20039;-66
2023/07/24 08:33:49;;;;;;;11.45;7.65;;;19.00;99.90;;;;;;5136167;27;20091;-66
2023/07/24 08:36:15;;;;;;;11.00;6.90;;;18.90;99.90;;;;;;5130450;27;20500;-66
2023/07/24 08:38:42;;;;;;;14.13;7.13;;;19.00;99.90;;;;;;5114834;27;20034;-66
2023/07/24 08:41:12;;;;;;;9.93;7.45;;;19.00;99.90;;;;;;5114953;27;20031;-66
2023/07/24 08:43:40;;;;;;;9.02;7.47;;;19.10;99.90;;;;;;5114457;27;20035;-66
2023/07/24 08:46:07;;;;;;;10.45;7.57;;;19.10;99.90;;;;;;5116472;27;21461;-66
2023/07/24 08:48:37;;;;;;;13.50;7.82;;;19.20;99.90;;;;;;5123157;27;20053;-66
2023/07/24 08:51:07;;;;;;;12.48;8.38;;;19.20;99.90;;;;;;5135171;27;20134;-65
2023/07/24 08:53:38;;;;;;;13.52;7.78;;;19.20;99.90;;;;;;5114456;27;20095;-66
2023/07/24 08:56:07;;;;;;;9.27;6.55;;;19.30;99.90;;;;;;5116965;27;20071;-66
2023/07/24 08:58:33;;;;;;;11.05;7.22;;;19.30;99.90;;;;;;5125989;27;20430;-66
2023/07/24 09:01:00;;;;;;;11.02;7.07;;;19.40;99.90;;;;;;5117247;27;20076;-66
2023/07/24 09:03:26;;;;;;;8.95;6.90;;;19.40;99.90;;;;;;5117742;27;20074;-66
2023/07/24 09:05:52;;;;;;;10.77;7.20;;;19.50;99.90;;;;;;5131873;27;20126;-66
2023/07/24 09:08:32;;;;;;;12.40;7.15;;;19.60;99.90;;;;;;5114204;27;20055;-66
2023/07/24 09:11:02;;;;;;;12.70;7.72;;;19.60;99.90;;;;;;5114084;27;20043;-66
2023/07/24 09:13:29;;;;;;;12.55;7.30;;;19.60;99.90;;;;;;5113907;27;20035;-66
2023/07/24 09:15:55;;;;;;;8.05;6.55;;;19.70;99.90;;;;;;5113684;27;20114;-66
2023/07/24 09:18:21;;;;;;;11.73;6.82;;;19.70;99.90;;;;;;5116069;27;20066;-66
2023/07/24 09:20:47;;;;;;;11.02;6.40;;;19.80;99.90;;;;;;5134600;27;20079;-66
2023/07/24 09:23:14;;;;;;;8.73;6.20;;;19.90;99.90;;;;;;5134819;27;20059;-66
2023/07/24 09:25:42;;;;;;;10.48;6.28;;;19.90;99.90;;;;;;5134339;27;20042;-66
2023/07/24 09:28:15;;;;;;;12.32;6.57;;;20.00;99.90;;;;;;5124424;27;20126;-65
2023/07/24 09:30:50;;;;;;;12.63;6.82;;;20.10;99.90;;;;;;5113962;27;20525;-65
2023/07/24 09:33:16;;;;;;;12.20;6.72;;;20.20;99.90;;;;;;5121750;27;20038;-66
2023/07/24 09:35:41;;;;;;;10.30;6.25;;;20.30;99.90;;;;;;5134126;27;20130;-66
2023/07/24 09:38:10;;;;;;;10.10;5.82;;;20.20;99.90;;;;;;5127834;27;20866;-66
2023/07/24 09:40:44;;;;;;;10.20;5.82;;;20.30;99.90;;;;;;5117817;27;20420;-66
2023/07/24 09:43:30;;;;;;;10.10;6.72;;;20.40;99.90;;;;;;5113693;27;20546;-66
2023/07/24 09:45:57;;;;;;;12.02;6.22;;;20.70;99.90;;;;;;5113547;27;20043;-66
2023/07/24 09:48:25;;;;;;;12.90;6.25;;;20.90;99.90;;;;;;5117383;27;20504;-66
2023/07/24 09:50:55;;;;;;;10.32;5.90;;;21.10;99.90;;;;;;5112500;27;20047;-66
2023/07/24 09:53:37;;;;;;;11.35;6.40;;;21.30;99.90;;;;;;5112849;27;20031;-66
2023/07/24 09:56:05;;;;;;;9.45;5.35;;;21.20;99.90;;;;;;5116613;27;20039;-66
2023/07/24 09:58:34;;;;;;;9.85;6.50;;;21.20;99.90;;;;;;5120169;27;20057;-66
2023/07/24 10:01:03;;;;;;;11.38;6.10;;;21.10;99.90;;;;;;5127150;27;20519;-66
2023/07/24 10:03:29;;;;;;;10.13;6.80;;;20.90;99.90;;;;;;5118199;27;20103;-66
2023/07/24 10:05:55;;;;;;;9.80;5.50;;;20.80;99.90;;;;;;5116912;27;20054;-66
2023/07/24 10:08:22;;;;;;;8.50;5.10;;;21.00;99.90;;;;;;5124547;27;20100;-66
2023/07/24 10:10:51;;;;;;;12.57;5.15;;;21.40;99.90;;;;;;5103715;27;20481;-66
2023/07/24 10:13:17;;;;;;;10.07;5.65;;;21.90;99.90;;;;;;5123955;27;20046;-66
2023/07/24 10:15:44;;;;;;;10.82;5.93;;;22.00;99.90;;;;;;5124414;27;20054;-66
2023/07/24 10:18:10;;;;;;;9.60;6.07;;;21.90;99.90;;;;;;5113046;27;20039;-66
2023/07/24 10:20:39;;;;;;;8.77;5.15;;;22.00;99.90;;;;;;5118646;27;20031;-66
2023/07/24 10:23:08;;;;;;;11.00;5.53;;;22.20;99.90;;;;;;5133449;27;20043;-66
2023/07/24 10:25:36;;;;;;;9.75;5.40;;;22.70;99.90;;;;;;5133306;27;20126;-66
2023/07/24 10:28:10;;;;;;;7.07;4.82;;;23.10;99.90;;;;;;5133137;27;20050;-66
2023/07/24 10:30:43;;;;;;;8.10;5.15;;;23.20;99.90;;;;;;5119881;27;20130;-66
2023/07/24 10:33:18;;;;;;;9.07;4.90;;;23.30;99.90;;;;;;5132976;27;20042;-66
2023/07/24 10:35:51;;;;;;;9.70;5.72;;;23.40;99.90;;;;;;5133168;27;20034;-66
2023/07/24 10:38:17;;;;;;;8.68;4.63;;;23.20;99.90;;;;;;5133361;27;20038;-66
2023/07/24 10:40:48;;;;;;;7.75;4.90;;;22.90;99.90;;;;;;5133148;27;20038;-66
2023/07/24 10:43:18;;;;;;;8.50;5.60;;;22.60;99.90;;;;;;5114337;27;20400;-66
2023/07/24 10:45:53;;;;;;;9.00;5.00;;;22.50;99.90;;;;;;5112523;27;20127;-66
2023/07/24 10:48:24;;;;;;;10.35;5.30;;;22.30;99.90;;;;;;5112526;27;20039;-66
2023/07/24 10:50:51;;;;;;;7.60;4.73;;;22.10;99.90;;;;;;5112850;27;20492;-66
2023/07/24 10:53:19;;;;;;;7.88;5.13;;;22.00;99.90;;;;;;5126532;27;20369;-66
2023/07/24 10:55:47;;;;;;;6.80;4.38;;;21.90;99.90;;;;;;5137069;27;20080;-66
2023/07/24 10:58:14;;;;;;;6.68;4.63;;;21.80;99.90;;;;;;5155444;27;20031;-66
2023/07/24 11:00:40;;;;;;;7.80;4.60;;;21.60;99.90;;;;;;5137030;27;20035;-66
2023/07/24 11:03:10;;;;;;;9.85;5.22;;;21.40;99.90;;;;;;5130543;27;20119;-66
2023/07/24 11:05:39;;;;;;;7.45;4.93;;;21.40;99.90;;;;;;5116647;27;20151;-66
2023/07/24 11:08:23;;;;;;;7.45;4.88;;;21.20;99.90;;;;;;5119034;27;20493;-66
2023/07/24 11:10:51;;;;;;;9.20;4.90;;;21.00;99.90;;;;;;5136871;27;20052;-66
2023/07/24 11:13:19;;;;;;;7.78;4.93;;;20.90;99.90;;;;;;5116792;27;20042;-66
2023/07/24 11:15:45;;;;;;;10.60;5.28;;;20.90;99.90;;;;;;5129612;27;20034;-67
2023/07/24 11:18:11;;;;;;;10.13;5.45;;;20.80;99.90;;;;;;5125846;27;20276;-66
2023/07/24 11:20:51;;;;;;;9.20;5.32;;;20.70;99.90;;;;;;5135388;27;20035;-66
2023/07/24 11:23:17;;;;;;;10.27;5.43;;;20.80;99.90;;;;;;5123498;27;20118;-66
2023/07/24 11:25:43;;;;;;;11.23;5.85;;;20.80;99.90;;;;;;5132418;27;20039;-66
2023/07/24 11:28:11;;;;;;;8.50;5.30;;;21.00;99.90;;;;;;5127941;27;20522;-66
2023/07/24 11:30:37;;;;;;;7.05;5.10;;;21.40;99.90;;;;;;5116087;27;20500;-66
2023/07/24 11:33:06;;;;;;;9.30;5.78;;;21.90;99.90;;;;;;5116363;27;20039;-66
2023/07/24 11:35:32;;;;;;;8.23;5.28;;;22.30;99.90;;;;;;5125962;27;20130;-66
2023/07/24 11:37:58;;;;;;;10.27;4.45;;;22.40;99.90;;;;;;5125943;27;20034;-66
2023/07/24 11:40:36;;;;;;;8.07;4.88;;;22.40;99.90;;;;;;5115414;27;20039;-66
2023/07/24 11:43:03;;;;;;;8.25;5.28;;;22.30;99.90;;;;;;5131182;27;20117;-66
2023/07/24 11:45:30;;;;;;;10.70;4.88;;;22.30;99.90;;;;;;5132376;27;20051;-66
2023/07/24 11:47:56;;;;;;;7.68;4.40;;;22.40;99.90;;;;;;5115078;27;20054;-66
2023/07/24 11:50:23;;;;;;;6.18;4.20;;;22.40;99.90;;;;;;5121773;27;20043;-66
2023/07/24 11:52:50;;;;;;;9.77;4.68;;;22.60;99.90;;;;;;5131371;27;20035;-66
2023/07/24 11:55:30;;;;;;;8.85;5.25;;;22.60;99.90;;;;;;5101493;27;20047;-66
2023/07/24 11:58:00;;;;;;;7.18;4.70;;;22.80;99.90;;;;;;5130332;27;20042;-66
2023/07/24 12:00:27;;;;;;;6.93;4.50;;;22.90;99.90;;;;;;5123214;27;20034;-66
2023/07/24 12:02:58;;;;;;;8.77;5.05;;;23.00;99.90;;;;;;5118458;27;20104;-66
2023/07/24 12:05:24;;;;;;;9.77;5.15;;;22.90;99.90;;;;;;5116279;27;20051;-66
2023/07/24 12:07:50;;;;;;;7.50;4.88;;;22.70;99.90;;;;;;5134322;27;20049;-66
2023/07/24 12:10:28;;;;;;;8.48;4.80;;;22.60;99.90;;;;;;5121279;27;20500;-66
2023/07/24 12:12:59;;;;;;;8.32;4.88;;;22.50;99.90;;;;;;5113889;27;20079;-66
2023/07/24 12:15:26;;;;;;;7.82;5.10;;;22.70;99.90;;;;;;5151410;27;20035;-66
2023/07/24 12:17:52;;;;;;;10.23;5.50;;;22.70;99.90;;;;;;5128426;27;20130;-66
2023/07/24 12:20:18;;;;;;;7.03;5.03;;;22.60;99.90;;;;;;5134853;27;20050;-67
2023/07/24 12:22:44;;;;;;;6.40;4.53;;;22.60;99.90;;;;;;5134222;27;20045;-66
2023/07/24 12:25:10;;;;;;;7.88;4.88;;;22.60;99.90;;;;;;5118568;27;20050;-66
2023/07/24 12:27:37;;;;;;;11.38;5.32;;;22.60;99.90;;;;;;5115413;27;20081;-66
2023/07/24 12:30:03;;;;;;;7.25;4.93;;;22.60;99.90;;;;;;5115984;27;20126;-66
2023/07/24 12:32:28;;;;;;;8.20;5.57;;;22.70;99.90;;;;;;5119667;27;20114;-66
2023/07/24 12:34:54;;;;;;;8.20;4.53;;;22.60;99.90;;;;;;5115928;27;20046;-66
2023/07/24 12:37:20;;;;;;;9.48;5.60;;;22.50;99.90;;;;;;5115007;27;20031;-66
2023/07/24 12:39:47;;;;;;;8.45;5.55;;;22.30;99.90;;;;;;5132425;27;20030;-66